createdAt,value
2017-08-25T00:01:36.991Z,6.20
2017-08-25T00:04:04.447Z,6.53
2017-08-25T00:06:31.936Z,7.63
2017-08-25T00:08:59.496Z,6.30
2017-08-25T00:11:26.948Z,5.60
2017-08-25T00:13:54.415Z,5.73
2017-08-25T00:16:21.866Z,5.77
2017-08-25T00:18:49.342Z,5.83
2017-08-25T00:21:16.803Z,7.90
2017-08-25T00:23:44.261Z,7.53
2017-08-25T00:26:11.728Z,7.87
2017-08-25T00:28:39.205Z,7.53
2017-08-25T00:31:06.678Z,8.50
2017-08-25T00:33:34.167Z,7.43
2017-08-25T00:36:01.635Z,7.70
2017-08-25T00:38:29.083Z,7.63
2017-08-25T00:40:56.538Z,5.97
2017-08-25T00:43:24.019Z,6.80
2017-08-25T00:45:51.474Z,6.27
2017-08-25T00:48:19.726Z,7.87
2017-08-25T00:50:47.201Z,7.43
2017-08-25T00:53:14.671Z,6.60
2017-08-25T00:55:42.144Z,6.73
2017-08-25T00:58:09.690Z,6.67
2017-08-25T01:00:37.145Z,7.23
2017-08-25T01:03:04.608Z,5.93
2017-08-25T01:05:32.079Z,6.53
2017-08-25T01:07:59.543Z,6.63
2017-08-25T01:10:27.027Z,7.37
2017-08-25T01:12:54.494Z,7.70
2017-08-25T01:15:21.964Z,7.10
2017-08-25T01:17:49.407Z,7.73
2017-08-25T01:20:16.883Z,6.70
2017-08-25T01:22:44.358Z,7.10
2017-08-25T01:25:11.819Z,6.57
2017-08-25T01:27:39.270Z,6.37
2017-08-25T01:30:06.743Z,7.50
2017-08-25T01:32:34.235Z,8.90
2017-08-25T01:35:01.716Z,8.60
2017-08-25T01:37:29.171Z,9.00
2017-08-25T01:39:56.643Z,8.50
2017-08-25T01:42:24.102Z,6.10
2017-08-25T01:44:51.591Z,6.83
2017-08-25T01:47:19.042Z,7.37
2017-08-25T01:49:46.524Z,6.80
2017-08-25T01:52:13.992Z,8.70
2017-08-25T01:54:41.446Z,9.63
2017-08-25T01:57:08.930Z,9.53
2017-08-25T01:59:36.387Z,8.47
2017-08-25T02:02:03.867Z,7.70
2017-08-25T02:04:31.326Z,7.30
2017-08-25T02:06:58.787Z,8.43
2017-08-25T02:09:26.250Z,7.47
2017-08-25T02:11:53.720Z,7.90
2017-08-25T02:14:21.182Z,8.07
2017-08-25T02:16:48.638Z,8.07
2017-08-25T02:19:16.115Z,8.33
2017-08-25T02:21:49.423Z,7.50
2017-08-25T02:24:16.887Z,7.80
2017-08-25T02:26:44.367Z,7.70
2017-08-25T02:29:11.828Z,7.00
2017-08-25T02:31:40.073Z,6.70
2017-08-25T02:34:07.526Z,7.27
2017-08-25T02:36:34.987Z,7.10
2017-08-25T02:39:02.459Z,7.47
2017-08-25T02:41:29.930Z,7.23
2017-08-25T02:43:57.388Z,7.33
2017-08-25T02:46:24.839Z,6.87
2017-08-25T02:48:52.340Z,6.67
2017-08-25T02:51:19.798Z,6.63
2017-08-25T02:53:47.260Z,6.10
2017-08-25T02:56:14.715Z,6.37
2017-08-25T02:58:42.182Z,6.03
2017-08-25T03:01:09.638Z,6.67
2017-08-25T03:03:37.123Z,7.30
2017-08-25T03:06:04.577Z,6.13
2017-08-25T03:08:32.050Z,7.90
2017-08-25T03:10:59.509Z,7.00
2017-08-25T03:13:26.963Z,7.77
2017-08-25T03:15:54.459Z,7.00
2017-08-25T03:18:21.919Z,6.00
2017-08-25T03:20:49.374Z,7.27
2017-08-25T03:23:16.852Z,7.20
2017-08-25T03:25:44.307Z,6.73
2017-08-25T03:28:11.777Z,6.77
2017-08-25T03:30:39.239Z,8.77
2017-08-25T03:33:06.697Z,8.00
2017-08-25T03:35:34.167Z,7.63
2017-08-25T03:38:01.636Z,7.47
2017-08-25T03:40:29.091Z,7.63
2017-08-25T03:42:56.550Z,7.50
2017-08-25T03:45:24.020Z,7.93
2017-08-25T03:47:51.492Z,7.43
2017-08-25T03:50:18.966Z,6.83
2017-08-25T03:52:46.426Z,7.37
2017-08-25T03:55:13.890Z,7.87
2017-08-25T03:57:41.361Z,7.73
2017-08-25T04:00:08.822Z,9.00
2017-08-25T04:02:36.295Z,7.47
2017-08-25T04:05:03.746Z,7.10
2017-08-25T04:07:31.986Z,7.10
2017-08-25T04:09:59.438Z,6.67
2017-08-25T04:12:26.977Z,7.00
2017-08-25T04:14:54.425Z,7.40
2017-08-25T04:17:21.879Z,6.37
2017-08-25T04:19:49.351Z,6.60
2017-08-25T04:22:16.867Z,6.17
2017-08-25T04:24:44.326Z,6.13
2017-08-25T04:27:11.824Z,7.40
2017-08-25T04:29:39.287Z,8.03
2017-08-25T04:32:06.743Z,6.67
2017-08-25T04:34:34.203Z,5.83
2017-08-25T04:37:01.679Z,5.50
2017-08-25T04:39:29.172Z,7.00
2017-08-25T04:41:57.428Z,6.73
2017-08-25T04:44:24.908Z,6.87
2017-08-25T04:46:52.399Z,6.90
2017-08-25T04:49:19.846Z,7.30
2017-08-25T04:51:47.303Z,7.40
2017-08-25T04:54:14.771Z,8.40
2017-08-25T04:56:42.230Z,7.20
2017-08-25T04:59:09.703Z,7.20
2017-08-25T05:01:37.158Z,7.47
2017-08-25T05:04:04.620Z,7.57
2017-08-25T05:06:32.092Z,7.70
2017-08-25T05:08:59.561Z,6.80
2017-08-25T05:11:27.032Z,7.90
2017-08-25T05:13:54.515Z,6.47
2017-08-25T05:16:21.982Z,6.10
2017-08-25T05:18:49.445Z,7.63
2017-08-25T05:21:16.910Z,6.60
2017-08-25T05:23:45.365Z,8.77
2017-08-25T05:26:12.956Z,10.23
2017-08-25T05:28:40.414Z,8.77
2017-08-25T05:31:07.887Z,7.10
2017-08-25T05:33:36.143Z,7.50
2017-08-25T05:36:03.615Z,9.37
2017-08-25T05:38:31.083Z,8.73
2017-08-25T05:40:58.551Z,7.70
2017-08-25T05:43:26.778Z,8.13
2017-08-25T05:45:54.262Z,8.30
2017-08-25T05:48:21.715Z,7.50
2017-08-25T05:50:49.187Z,8.93
2017-08-25T05:53:16.674Z,9.13
2017-08-25T05:55:44.151Z,9.33
2017-08-25T05:58:11.628Z,9.00
2017-08-25T06:00:39.091Z,8.07
2017-08-25T06:03:06.545Z,8.87
2017-08-25T06:05:34.019Z,9.43
2017-08-25T06:08:01.475Z,9.47
2017-08-25T06:10:28.950Z,9.50
2017-08-25T06:12:56.418Z,9.60
2017-08-25T06:15:23.898Z,9.73
2017-08-25T06:17:51.358Z,9.63
2017-08-25T06:20:18.810Z,9.67
2017-08-25T06:22:46.298Z,10.00
2017-08-25T06:25:13.767Z,9.37
2017-08-25T06:27:41.236Z,9.70
2017-08-25T06:30:08.825Z,10.40
2017-08-25T06:32:36.299Z,10.20
2017-08-25T06:35:03.760Z,10.27
2017-08-25T06:37:31.226Z,9.90
2017-08-25T06:39:58.703Z,10.03
2017-08-25T06:42:26.184Z,9.10
2017-08-25T06:44:53.647Z,9.70
2017-08-25T06:47:21.127Z,9.70
2017-08-25T06:49:48.583Z,9.97
2017-08-25T06:52:16.043Z,10.20
2017-08-25T06:54:43.519Z,9.07
2017-08-25T06:57:11.002Z,9.80
2017-08-25T06:59:38.470Z,9.47
2017-08-25T07:02:06.523Z,9.93
2017-08-25T07:04:33.979Z,10.17
2017-08-25T07:07:01.435Z,9.50
2017-08-25T07:09:28.911Z,10.43
2017-08-25T07:11:56.371Z,10.53
2017-08-25T07:14:23.848Z,10.07
2017-08-25T07:16:51.413Z,9.73
2017-08-25T07:19:18.884Z,8.83
2017-08-25T07:21:46.357Z,9.23
2017-08-25T07:24:13.819Z,10.50
2017-08-25T07:26:41.294Z,9.90
2017-08-25T07:29:08.763Z,10.83
2017-08-25T07:31:36.239Z,10.50
2017-08-25T07:34:03.699Z,9.43
2017-08-25T07:36:31.176Z,9.70
2017-08-25T07:38:58.648Z,10.80
2017-08-25T07:41:26.114Z,9.87
2017-08-25T07:43:53.590Z,9.57
2017-08-25T07:46:21.102Z,8.70
2017-08-25T07:48:48.565Z,9.63
2017-08-25T07:51:16.014Z,9.53
2017-08-25T07:53:43.487Z,9.23
2017-08-25T07:56:10.946Z,8.50
2017-08-25T07:58:38.422Z,10.10
2017-08-25T08:01:05.879Z,9.47
2017-08-25T08:03:33.368Z,10.67
2017-08-25T08:06:00.819Z,9.57
2017-08-25T08:08:28.300Z,9.43
2017-08-25T08:10:55.772Z,8.60
2017-08-25T08:13:23.314Z,10.33
2017-08-25T08:15:50.778Z,10.67
2017-08-25T08:18:18.249Z,9.23
2017-08-25T08:20:45.730Z,11.43
2017-08-25T08:23:13.184Z,9.80
2017-08-25T08:25:40.662Z,9.43
2017-08-25T08:28:08.125Z,10.07
2017-08-25T08:30:35.595Z,9.50
2017-08-25T08:33:03.075Z,10.30
2017-08-25T08:35:30.526Z,9.10
2017-08-25T08:37:58.018Z,9.10
2017-08-25T08:40:25.479Z,9.70
2017-08-25T08:42:52.954Z,9.80
2017-08-25T08:45:20.425Z,9.50
2017-08-25T08:47:47.888Z,10.43
2017-08-25T08:50:15.475Z,9.40
2017-08-25T08:52:42.927Z,9.60
2017-08-25T08:55:10.393Z,10.70
2017-08-25T08:57:37.871Z,9.20
2017-08-25T09:00:05.319Z,9.30
2017-08-25T09:02:32.790Z,8.57
2017-08-25T09:05:00.250Z,8.40
2017-08-25T09:07:27.722Z,8.20
2017-08-25T09:09:55.180Z,7.30
2017-08-25T09:12:22.673Z,5.93
2017-08-25T09:14:50.186Z,6.70
2017-08-25T09:17:17.646Z,7.70
2017-08-25T09:19:45.145Z,6.77
2017-08-25T09:22:12.603Z,8.20
2017-08-25T09:24:40.058Z,8.50
2017-08-25T09:27:07.539Z,6.97
2017-08-25T09:29:34.991Z,7.07
2017-08-25T09:32:02.472Z,9.83
2017-08-25T09:34:29.949Z,9.10
2017-08-25T09:36:57.405Z,7.07
2017-08-25T09:39:24.858Z,6.20
2017-08-25T09:41:53.097Z,4.80
2017-08-25T09:44:20.575Z,6.50
2017-08-25T09:46:48.045Z,8.33
2017-08-25T09:49:16.294Z,8.00
2017-08-25T09:51:43.750Z,6.90
2017-08-25T09:54:11.214Z,6.13
2017-08-25T09:56:38.691Z,5.23
2017-08-25T09:59:06.146Z,5.63
2017-08-25T10:01:33.640Z,5.83
2017-08-25T10:04:01.100Z,5.07
2017-08-25T10:06:28.572Z,5.30
2017-08-25T10:08:56.022Z,5.83
2017-08-25T10:11:23.487Z,6.10
2017-08-25T10:13:50.959Z,6.07
2017-08-25T10:16:18.415Z,6.90
2017-08-25T10:18:45.887Z,6.07
2017-08-25T10:21:13.346Z,6.40
2017-08-25T10:23:40.849Z,7.50
2017-08-25T10:26:08.315Z,7.10
2017-08-25T10:28:35.778Z,5.87
2017-08-25T10:31:03.251Z,6.70
2017-08-25T10:33:42.691Z,6.60
2017-08-25T10:36:22.098Z,7.50
2017-08-25T10:39:01.632Z,7.73
2017-08-25T10:41:41.006Z,7.27
2017-08-25T10:44:20.507Z,7.23
2017-08-25T10:46:47.975Z,7.23
2017-08-25T10:49:15.423Z,8.20
2017-08-25T10:51:42.894Z,7.70
2017-08-25T10:54:10.379Z,6.60
2017-08-25T10:56:37.844Z,7.60
2017-08-25T10:59:05.305Z,6.13
2017-08-25T11:01:32.760Z,6.27
2017-08-25T11:04:00.256Z,5.70
2017-08-25T11:06:27.726Z,5.77
2017-08-25T11:08:55.197Z,6.77
2017-08-25T11:11:22.652Z,6.63
2017-08-25T11:13:50.136Z,4.97
2017-08-25T11:16:17.595Z,4.03
2017-08-25T11:18:45.064Z,5.00
2017-08-25T11:21:12.547Z,5.30
2017-08-25T11:23:40.005Z,5.17
2017-08-25T11:26:07.487Z,4.77
2017-08-25T11:28:34.942Z,4.67
2017-08-25T11:31:02.429Z,5.47
2017-08-25T11:33:29.903Z,5.50
2017-08-25T11:35:57.384Z,5.30
2017-08-25T11:38:24.842Z,5.30
2017-08-25T11:40:52.302Z,5.80
2017-08-25T11:43:19.770Z,5.70
2017-08-25T11:45:47.258Z,5.20
2017-08-25T11:48:14.725Z,5.60
2017-08-25T11:50:42.191Z,5.20
2017-08-25T11:53:09.647Z,5.23
2017-08-25T11:55:37.143Z,5.43
2017-08-25T11:58:04.592Z,4.27
2017-08-25T12:00:32.058Z,4.70
2017-08-25T12:02:59.522Z,4.37
2017-08-25T12:05:26.984Z,4.40
2017-08-25T12:07:54.463Z,4.73
2017-08-25T12:10:21.931Z,4.00
2017-08-25T12:12:49.399Z,3.97
2017-08-25T12:15:16.998Z,4.40
2017-08-25T12:17:44.556Z,4.83
2017-08-25T12:20:12.007Z,4.83
2017-08-25T12:22:39.499Z,4.10
2017-08-25T12:25:06.959Z,4.47
2017-08-25T12:27:34.412Z,4.57
2017-08-25T12:30:01.895Z,4.10
2017-08-25T12:32:29.362Z,3.87
2017-08-25T12:34:56.830Z,3.70
2017-08-25T12:37:24.307Z,4.40
2017-08-25T12:39:51.775Z,4.00
2017-08-25T12:42:19.235Z,3.70
2017-08-25T12:44:46.703Z,4.53
2017-08-25T12:47:14.160Z,4.23
2017-08-25T12:49:41.633Z,3.57
2017-08-25T12:52:09.084Z,4.20
2017-08-25T12:54:36.559Z,4.00
2017-08-25T12:57:04.011Z,3.40
2017-08-25T12:59:31.487Z,3.77
2017-08-25T13:01:58.951Z,3.80
2017-08-25T13:04:26.531Z,4.60
2017-08-25T13:06:54.000Z,3.60
2017-08-25T13:09:21.476Z,4.73
2017-08-25T13:11:48.951Z,4.60
2017-08-25T13:14:16.427Z,4.13
2017-08-25T13:16:43.916Z,4.70
2017-08-25T13:19:11.380Z,5.33
2017-08-25T13:21:39.860Z,4.93
2017-08-25T13:24:07.338Z,4.87
2017-08-25T13:26:34.812Z,4.57
2017-08-25T13:29:02.275Z,4.80
2017-08-25T13:31:29.769Z,4.47
2017-08-25T13:33:57.218Z,4.47
2017-08-25T13:36:24.711Z,5.57
2017-08-25T13:38:52.169Z,4.10
2017-08-25T13:41:19.627Z,3.70
2017-08-25T13:43:47.098Z,4.20
2017-08-25T13:46:14.563Z,4.03
2017-08-25T13:48:42.034Z,4.50
2017-08-25T13:51:09.498Z,4.07
2017-08-25T13:53:37.740Z,4.00
2017-08-25T13:56:05.216Z,3.90
2017-08-25T13:58:32.684Z,4.03
2017-08-25T14:01:00.182Z,4.70
2017-08-25T14:03:27.635Z,3.40
2017-08-25T14:05:55.103Z,3.50
2017-08-25T14:08:22.572Z,3.23
2017-08-25T14:10:50.035Z,3.57
2017-08-25T14:13:17.534Z,4.20
2017-08-25T14:15:45.033Z,3.53
2017-08-25T14:18:12.490Z,3.50
2017-08-25T14:20:39.975Z,3.60
2017-08-25T14:23:07.441Z,2.80
2017-08-25T14:25:34.942Z,3.40
2017-08-25T14:28:03.200Z,3.70
2017-08-25T14:30:30.662Z,3.20
2017-08-25T14:32:58.119Z,3.50
2017-08-25T14:35:25.602Z,3.07
2017-08-25T14:37:53.089Z,3.20
2017-08-25T14:40:20.563Z,3.70
2017-08-25T14:42:48.039Z,3.30
2017-08-25T14:45:15.490Z,4.03
2017-08-25T14:47:42.974Z,3.67
2017-08-25T14:50:10.432Z,3.40
2017-08-25T14:52:37.915Z,4.10
2017-08-25T14:55:05.362Z,3.93
2017-08-25T14:57:32.860Z,3.50
2017-08-25T15:00:00.324Z,3.20
2017-08-25T15:02:27.779Z,3.70
2017-08-25T15:04:56.018Z,3.30
2017-08-25T15:07:23.470Z,4.50
2017-08-25T15:09:50.955Z,3.47
2017-08-25T15:12:19.171Z,3.80
2017-08-25T15:14:46.627Z,3.20
2017-08-25T15:17:14.096Z,3.13
2017-08-25T15:19:41.551Z,3.33
2017-08-25T15:22:09.036Z,3.93
2017-08-25T15:24:36.502Z,4.00
2017-08-25T15:27:03.996Z,3.50
2017-08-25T15:29:31.583Z,4.83
2017-08-25T15:31:59.030Z,4.03
2017-08-25T15:34:26.532Z,3.20
2017-08-25T15:36:54.020Z,3.70
2017-08-25T15:39:21.514Z,3.10
2017-08-25T15:41:48.978Z,3.37
2017-08-25T15:44:16.431Z,3.50
2017-08-25T15:46:43.888Z,4.17
2017-08-25T15:49:11.362Z,4.13
2017-08-25T15:51:40.967Z,3.83
2017-08-25T15:54:08.439Z,3.20
2017-08-25T15:56:35.933Z,3.10
2017-08-25T15:59:03.399Z,3.90
2017-08-25T16:01:30.903Z,4.90
2017-08-25T16:03:58.352Z,3.40
2017-08-25T16:06:26.256Z,3.60
2017-08-25T16:08:53.727Z,3.20
2017-08-25T16:11:21.190Z,4.67
2017-08-25T16:13:48.679Z,3.20
2017-08-25T16:16:16.127Z,3.87
2017-08-25T16:18:43.623Z,4.00
2017-08-25T16:21:11.118Z,4.30
2017-08-25T16:23:38.582Z,5.00
2017-08-25T16:26:06.825Z,3.87
2017-08-25T16:28:34.304Z,3.73
2017-08-25T16:31:01.786Z,3.77
2017-08-25T16:33:29.267Z,4.07
2017-08-25T16:35:56.746Z,4.60
2017-08-25T16:38:25.060Z,3.57
2017-08-25T16:40:52.527Z,3.80
2017-08-25T16:43:19.986Z,3.97
2017-08-25T16:45:47.454Z,4.70
2017-08-25T16:48:14.987Z,3.87
2017-08-25T16:50:42.459Z,3.80
2017-08-25T16:53:09.927Z,4.17
2017-08-25T16:55:37.374Z,3.40
2017-08-25T16:58:04.835Z,3.40
2017-08-25T17:00:32.301Z,4.17
2017-08-25T17:02:59.760Z,3.93
2017-08-25T17:05:27.247Z,3.90
2017-08-25T17:07:54.694Z,3.90
2017-08-25T17:10:22.160Z,4.37
2017-08-25T17:12:49.630Z,3.70
2017-08-25T17:15:17.087Z,3.50
2017-08-25T17:17:44.559Z,3.77
2017-08-25T17:20:12.036Z,3.40
2017-08-25T17:22:39.500Z,3.77
2017-08-25T17:25:06.976Z,3.53
2017-08-25T17:27:34.430Z,3.23
2017-08-25T17:30:01.899Z,3.60
2017-08-25T17:32:29.395Z,4.07
2017-08-25T17:34:56.952Z,3.83
2017-08-25T17:37:24.398Z,3.67
2017-08-25T17:39:51.875Z,3.50
2017-08-25T17:42:19.323Z,3.77
2017-08-25T17:44:46.795Z,3.77
2017-08-25T17:47:14.255Z,3.80
2017-08-25T17:49:41.726Z,4.27
2017-08-25T17:52:09.178Z,3.60
2017-08-25T17:54:36.663Z,3.80
2017-08-25T17:57:04.111Z,4.43
2017-08-25T17:59:31.571Z,4.07
2017-08-25T18:01:59.044Z,4.87
2017-08-25T18:04:26.528Z,3.93
2017-08-25T18:06:53.986Z,3.83
2017-08-25T18:09:21.450Z,3.63
2017-08-25T18:11:48.911Z,4.00
2017-08-25T18:14:16.392Z,3.60
2017-08-25T18:16:43.853Z,3.30
2017-08-25T18:19:11.335Z,5.30
2017-08-25T18:21:38.823Z,6.50
2017-08-25T18:24:06.290Z,6.17
2017-08-25T18:26:33.839Z,4.80
2017-08-25T18:29:01.398Z,4.17
2017-08-25T18:31:28.881Z,4.60
2017-08-25T18:33:56.339Z,4.20
2017-08-25T18:36:23.808Z,4.17
2017-08-25T18:38:51.275Z,3.77
2017-08-25T18:41:18.742Z,3.47
2017-08-25T18:43:46.203Z,3.77
2017-08-25T18:46:13.668Z,4.33
2017-08-25T18:48:41.148Z,4.43
2017-08-25T18:51:08.620Z,4.47
2017-08-25T18:53:36.091Z,4.70
2017-08-25T18:56:03.570Z,4.33
2017-08-25T18:58:31.055Z,4.50
2017-08-25T19:00:58.542Z,4.60
2017-08-25T19:03:26.044Z,4.40
2017-08-25T19:05:53.516Z,4.30
2017-08-25T19:08:21.030Z,4.13
2017-08-25T19:10:48.507Z,4.70
2017-08-25T19:13:15.995Z,5.50
2017-08-25T19:15:43.451Z,4.50
2017-08-25T19:18:10.931Z,3.70
2017-08-25T19:20:38.415Z,3.57
2017-08-25T19:23:05.875Z,3.87
2017-08-25T19:25:33.347Z,4.37
2017-08-25T19:28:00.819Z,4.57
2017-08-25T19:30:29.061Z,3.70
2017-08-25T19:32:56.523Z,3.80
2017-08-25T19:35:24.005Z,4.20
2017-08-25T19:37:51.459Z,4.67
2017-08-25T19:40:18.919Z,5.03
2017-08-25T19:42:46.387Z,4.87
2017-08-25T19:45:14.620Z,4.87
2017-08-25T19:47:42.071Z,4.30
2017-08-25T19:50:09.563Z,4.50
2017-08-25T19:52:37.017Z,4.53
2017-08-25T19:55:04.499Z,4.90
2017-08-25T19:57:31.942Z,5.50
2017-08-25T19:59:59.841Z,4.83
2017-08-25T20:02:27.351Z,4.60
2017-08-25T20:04:54.815Z,4.30
2017-08-25T20:07:22.281Z,4.70
2017-08-25T20:09:49.748Z,4.40
2017-08-25T20:12:17.216Z,3.60
2017-08-25T20:14:44.682Z,4.27
2017-08-25T20:17:12.163Z,4.47
2017-08-25T20:19:39.622Z,4.83
2017-08-25T20:22:07.092Z,4.80
2017-08-25T20:24:34.593Z,5.10
2017-08-25T20:27:02.049Z,4.50
2017-08-25T20:29:30.340Z,4.40
2017-08-25T20:31:57.791Z,4.13
2017-08-25T20:34:25.247Z,4.50
2017-08-25T20:36:52.752Z,4.50
2017-08-25T20:39:20.215Z,4.50
2017-08-25T20:41:47.674Z,4.40
2017-08-25T20:44:15.163Z,4.30
2017-08-25T20:46:42.628Z,4.57
2017-08-25T20:49:10.117Z,4.30
2017-08-25T20:51:37.582Z,4.33
2017-08-25T20:54:05.050Z,4.90
2017-08-25T20:56:32.507Z,4.63
2017-08-25T20:58:59.984Z,5.30
2017-08-25T21:01:27.435Z,4.70
2017-08-25T21:03:54.910Z,4.47
2017-08-25T21:06:22.362Z,5.60
2017-08-25T21:08:49.851Z,5.33
2017-08-25T21:11:17.319Z,5.03
2017-08-25T21:13:44.785Z,5.60
2017-08-25T21:16:12.244Z,5.00
2017-08-25T21:18:39.724Z,4.63
2017-08-25T21:21:07.200Z,5.10
2017-08-25T21:23:34.667Z,5.30
2017-08-25T21:26:02.142Z,5.83
2017-08-25T21:28:29.602Z,4.70
2017-08-25T21:30:57.081Z,4.23
2017-08-25T21:33:24.534Z,4.57
2017-08-25T21:35:52.007Z,4.53
2017-08-25T21:38:19.491Z,5.70
2017-08-25T21:40:46.978Z,4.53
2017-08-25T21:43:14.455Z,4.47
2017-08-25T21:45:41.923Z,4.33
2017-08-25T21:48:09.396Z,4.50
2017-08-25T21:50:36.864Z,4.20
2017-08-25T21:53:05.086Z,4.90
2017-08-25T21:55:32.554Z,5.37
2017-08-25T21:58:00.036Z,4.87
2017-08-25T22:00:27.491Z,4.73
2017-08-25T22:02:54.970Z,5.70
2017-08-25T22:05:22.434Z,5.50
2017-08-25T22:07:50.679Z,5.60
2017-08-25T22:10:18.134Z,5.23
2017-08-25T22:12:45.594Z,5.30
2017-08-25T22:15:13.079Z,5.20
2017-08-25T22:17:40.557Z,5.87
2017-08-25T22:20:08.012Z,5.77
2017-08-25T22:22:35.506Z,5.40
2017-08-25T22:25:02.972Z,5.37
2017-08-25T22:27:30.461Z,5.40
2017-08-25T22:29:57.911Z,5.70
2017-08-25T22:32:25.408Z,6.03
2017-08-25T22:34:52.870Z,5.87
2017-08-25T22:37:20.324Z,5.67
2017-08-25T22:39:47.805Z,6.80
2017-08-25T22:42:15.262Z,5.50
2017-08-25T22:44:42.740Z,5.70
2017-08-25T22:47:10.207Z,6.60
2017-08-25T22:49:37.694Z,5.60
2017-08-25T22:52:05.166Z,5.43
2017-08-25T22:54:32.615Z,6.30
2017-08-25T22:57:00.079Z,5.83
2017-08-25T22:59:27.539Z,6.83
2017-08-25T23:01:55.015Z,6.00
2017-08-25T23:04:22.471Z,6.50
2017-08-25T23:06:49.957Z,5.67
2017-08-25T23:09:18.187Z,5.37
2017-08-25T23:11:45.647Z,5.30
2017-08-25T23:14:13.123Z,5.10
2017-08-25T23:16:40.577Z,4.60
2017-08-25T23:19:08.047Z,5.40
2017-08-25T23:21:35.515Z,5.10
2017-08-25T23:24:03.739Z,4.80
2017-08-25T23:26:31.216Z,5.23
2017-08-25T23:28:58.671Z,4.80
2017-08-25T23:31:26.128Z,5.57
2017-08-25T23:33:53.602Z,5.30
2017-08-25T23:36:21.079Z,6.27
2017-08-25T23:38:48.557Z,6.13
2017-08-25T23:41:16.018Z,5.77
2017-08-25T23:43:43.478Z,6.47
2017-08-25T23:46:10.947Z,6.13
2017-08-25T23:48:38.419Z,6.13
2017-08-25T23:51:05.879Z,5.80
2017-08-25T23:53:33.351Z,6.53
2017-08-25T23:56:00.827Z,6.73
2017-08-25T23:58:28.309Z,7.20
